sensor_id;sensor_type;location;lat;lon;timestamp;temperature;humidity
28654;DHT22;24320;56.980;24.336;2023-04-01T00:01:46;4.10;99.90
28654;DHT22;24320;56.980;24.336;2023-04-01T00:04:13;4.10;99.90
28654;DHT22;24320;56.980;24.336;2023-04-01T00:06:40;4.10;99.90
28654;DHT22;24320;56.980;24.336;2023-04-01T00:09:07;4.00;99.90
28654;DHT22;24320;56.980;24.336;2023-04-01T00:11:34;4.00;99.90
28654;DHT22;24320;56.980;24.336;2023-04-01T00:14:01;4.10;99.90
28654;DHT22;24320;56.980;24.336;2023-04-01T00:16:28;4.10;99.90
28654;DHT22;24320;56.980;24.336;2023-04-01T00:18:55;4.10;99.90
28654;DHT22;24320;56.980;24.336;2023-04-01T00:21:22;4.10;99.90
28654;DHT22;24320;56.980;24.336;2023-04-01T00:23:50;4.00;99.90
28654;DHT22;24320;56.980;24.336;2023-04-01T00:26:18;4.00;99.90
28654;DHT22;24320;56.980;24.336;2023-04-01T00:28:48;4.00;99.90
28654;DHT22;24320;56.980;24.336;2023-04-01T00:31:15;4.00;99.90
28654;DHT22;24320;56.980;24.336;2023-04-01T00:33:42;4.00;99.90
28654;DHT22;24320;56.980;24.336;2023-04-01T00:36:11;3.90;99.90
28654;DHT22;24320;56.980;24.336;2023-04-01T00:38:38;3.90;99.90
28654;DHT22;24320;56.980;24.336;2023-04-01T00:41:06;3.90;99.90
28654;DHT22;24320;56.980;24.336;2023-04-01T00:43:34;3.90;99.90
28654;DHT22;24320;56.980;24.336;2023-04-01T00:46:01;3.90;99.90
28654;DHT22;24320;56.980;24.336;2023-04-01T00:48:31;3.90;99.90
28654;DHT22;24320;56.980;24.336;2023-04-01T00:51:04;3.80;99.90
28654;DHT22;24320;56.980;24.336;2023-04-01T00:53:33;3.80;99.90
28654;DHT22;24320;56.980;24.336;2023-04-01T00:56:22;3.80;99.90
28654;DHT22;24320;56.980;24.336;2023-04-01T00:59:16;3.80;99.90
28654;DHT22;24320;56.980;24.336;2023-04-01T01:01:46;3.80;99.90
28654;DHT22;24320;56.980;24.336;2023-04-01T01:04:30;3.70;99.90
28654;DHT22;24320;56.980;24.336;2023-04-01T01:09:35;3.60;99.90
28654;DHT22;24320;56.980;24.336;2023-04-01T01:12:16;3.60;99.90
28654;DHT22;24320;56.980;24.336;2023-04-01T01:34:40;3.30;99.90
28654;DHT22;24320;56.980;24.336;2023-04-01T01:37:16;3.30;99.90
28654;DHT22;24320;56.980;24.336;2023-04-01T01:39:47;3.30;99.90
28654;DHT22;24320;56.980;24.336;2023-04-01T01:42:17;3.40;99.90
28654;DHT22;24320;56.980;24.336;2023-04-01T01:44:47;3.30;99.90
28654;DHT22;24320;56.980;24.336;2023-04-01T01:47:17;3.30;99.90
28654;DHT22;24320;56.980;24.336;2023-04-01T01:49:45;3.30;99.90
28654;DHT22;24320;56.980;24.336;2023-04-01T01:52:13;3.30;99.90
28654;DHT22;24320;56.980;24.336;2023-04-01T01:54:54;3.30;99.90
28654;DHT22;24320;56.980;24.336;2023-04-01T01:57:39;3.20;99.90
28654;DHT22;24320;56.980;24.336;2023-04-01T02:00:09;3.20;99.90
28654;DHT22;24320;56.980;24.336;2023-04-01T02:02:45;3.20;99.90
28654;DHT22;24320;56.980;24.336;2023-04-01T02:05:21;3.20;99.90
28654;DHT22;24320;56.980;24.336;2023-04-01T02:07:58;3.20;99.90
28654;DHT22;24320;56.980;24.336;2023-04-01T02:10:29;3.20;99.90
28654;DHT22;24320;56.980;24.336;2023-04-01T02:13:00;3.10;99.90
28654;DHT22;24320;56.980;24.336;2023-04-01T02:15:31;3.10;99.90
28654;DHT22;24320;56.980;24.336;2023-04-01T02:18:00;3.10;99.90
28654;DHT22;24320;56.980;24.336;2023-04-01T02:20:29;3.10;99.90
28654;DHT22;24320;56.980;24.336;2023-04-01T02:22:57;3.10;99.90
28654;DHT22;24320;56.980;24.336;2023-04-01T02:25:33;3.00;99.90
28654;DHT22;24320;56.980;24.336;2023-04-01T02:28:02;3.00;99.90
28654;DHT22;24320;56.980;24.336;2023-04-01T02:30:33;3.00;99.90
28654;DHT22;24320;56.980;24.336;2023-04-01T02:33:01;3.00;99.90
28654;DHT22;24320;56.980;24.336;2023-04-01T02:35:29;3.00;99.90
28654;DHT22;24320;56.980;24.336;2023-04-01T02:37:57;3.00;99.90
28654;DHT22;24320;56.980;24.336;2023-04-01T02:40:24;3.00;99.90
28654;DHT22;24320;56.980;24.336;2023-04-01T02:42:51;3.00;99.90
28654;DHT22;24320;56.980;24.336;2023-04-01T02:45:18;2.90;99.90
28654;DHT22;24320;56.980;24.336;2023-04-01T02:47:45;2.90;99.90
28654;DHT22;24320;56.980;24.336;2023-04-01T02:50:12;2.90;99.90
28654;DHT22;24320;56.980;24.336;2023-04-01T02:52:39;2.90;99.90
28654;DHT22;24320;56.980;24.336;2023-04-01T02:55:07;2.90;99.90
28654;DHT22;24320;56.980;24.336;2023-04-01T02:57:34;2.90;99.90
28654;DHT22;24320;56.980;24.336;2023-04-01T03:00:01;2.90;99.90
28654;DHT22;24320;56.980;24.336;2023-04-01T03:02:28;2.90;99.90
28654;DHT22;24320;56.980;24.336;2023-04-01T03:04:55;2.90;99.90
28654;DHT22;24320;56.980;24.336;2023-04-01T03:07:23;2.80;99.90
28654;DHT22;24320;56.980;24.336;2023-04-01T03:09:50;2.90;99.90
28654;DHT22;24320;56.980;24.336;2023-04-01T03:12:17;2.80;99.90
28654;DHT22;24320;56.980;24.336;2023-04-01T03:14:44;2.80;99.90
28654;DHT22;24320;56.980;24.336;2023-04-01T03:17:11;2.90;99.90
28654;DHT22;24320;56.980;24.336;2023-04-01T03:19:38;2.90;99.90
28654;DHT22;24320;56.980;24.336;2023-04-01T03:22:05;2.90;99.90
28654;DHT22;24320;56.980;24.336;2023-04-01T03:24:32;2.90;99.90
28654;DHT22;24320;56.980;24.336;2023-04-01T03:26:58;2.90;99.90
28654;DHT22;24320;56.980;24.336;2023-04-01T03:29:25;2.80;99.90
28654;DHT22;24320;56.980;24.336;2023-04-01T03:31:52;2.90;99.90
28654;DHT22;24320;56.980;24.336;2023-04-01T03:34:19;2.90;99.90
28654;DHT22;24320;56.980;24.336;2023-04-01T03:36:47;2.80;99.90
28654;DHT22;24320;56.980;24.336;2023-04-01T03:39:14;2.80;99.90
28654;DHT22;24320;56.980;24.336;2023-04-01T03:41:45;2.90;99.90
28654;DHT22;24320;56.980;24.336;2023-04-01T03:44:13;2.90;99.90
28654;DHT22;24320;56.980;24.336;2023-04-01T03:46:40;2.80;99.90
28654;DHT22;24320;56.980;24.336;2023-04-01T03:49:08;2.80;99.90
28654;DHT22;24320;56.980;24.336;2023-04-01T03:51:39;2.80;99.90
28654;DHT22;24320;56.980;24.336;2023-04-01T03:54:08;2.80;99.90
28654;DHT22;24320;56.980;24.336;2023-04-01T03:56:35;2.80;99.90
28654;DHT22;24320;56.980;24.336;2023-04-01T03:59:05;2.80;99.90
28654;DHT22;24320;56.980;24.336;2023-04-01T04:01:33;2.80;99.90
28654;DHT22;24320;56.980;24.336;2023-04-01T04:04:00;2.80;99.90
28654;DHT22;24320;56.980;24.336;2023-04-01T04:06:27;2.80;99.90
28654;DHT22;24320;56.980;24.336;2023-04-01T04:08:54;2.90;99.90
28654;DHT22;24320;56.980;24.336;2023-04-01T04:11:22;2.90;99.90
28654;DHT22;24320;56.980;24.336;2023-04-01T04:13:49;2.90;99.90
28654;DHT22;24320;56.980;24.336;2023-04-01T04:16:17;2.90;99.90
28654;DHT22;24320;56.980;24.336;2023-04-01T04:18:44;2.90;99.90
28654;DHT22;24320;56.980;24.336;2023-04-01T04:21:14;2.90;99.90
28654;DHT22;24320;56.980;24.336;2023-04-01T04:23:42;2.90;99.90
28654;DHT22;24320;56.980;24.336;2023-04-01T04:26:13;2.90;99.90
28654;DHT22;24320;56.980;24.336;2023-04-01T04:28:41;2.90;99.90
28654;DHT22;24320;56.980;24.336;2023-04-01T04:31:08;2.80;99.90
28654;DHT22;24320;56.980;24.336;2023-04-01T04:33:35;2.80;99.90
28654;DHT22;24320;56.980;24.336;2023-04-01T04:38:33;2.90;99.90
28654;DHT22;24320;56.980;24.336;2023-04-01T04:41:00;2.90;99.90
28654;DHT22;24320;56.980;24.336;2023-04-01T04:43:30;2.90;99.90
28654;DHT22;24320;56.980;24.336;2023-04-01T04:45:59;3.00;99.90
28654;DHT22;24320;56.980;24.336;2023-04-01T04:48:34;2.90;99.90
28654;DHT22;24320;56.980;24.336;2023-04-01T04:51:01;2.90;99.90
28654;DHT22;24320;56.980;24.336;2023-04-01T04:53:28;2.90;99.90
28654;DHT22;24320;56.980;24.336;2023-04-01T04:55:56;2.90;99.90
28654;DHT22;24320;56.980;24.336;2023-04-01T04:58:23;2.90;99.90
28654;DHT22;24320;56.980;24.336;2023-04-01T05:00:49;2.90;99.90
28654;DHT22;24320;56.980;24.336;2023-04-01T05:03:17;2.90;99.90
28654;DHT22;24320;56.980;24.336;2023-04-01T05:05:52;2.90;99.90
28654;DHT22;24320;56.980;24.336;2023-04-01T05:08:20;2.90;99.90
28654;DHT22;24320;56.980;24.336;2023-04-01T05:10:47;2.90;99.90
28654;DHT22;24320;56.980;24.336;2023-04-01T05:13:14;2.90;99.90
28654;DHT22;24320;56.980;24.336;2023-04-01T05:15:41;2.90;99.90
28654;DHT22;24320;56.980;24.336;2023-04-01T05:18:08;2.90;99.90
28654;DHT22;24320;56.980;24.336;2023-04-01T05:20:36;2.90;99.90
28654;DHT22;24320;56.980;24.336;2023-04-01T05:23:03;2.90;99.90
28654;DHT22;24320;56.980;24.336;2023-04-01T05:25:30;2.90;99.90
28654;DHT22;24320;56.980;24.336;2023-04-01T05:27:59;3.00;99.90
28654;DHT22;24320;56.980;24.336;2023-04-01T05:30:26;3.00;99.90
28654;DHT22;24320;56.980;24.336;2023-04-01T05:32:53;3.00;99.90
28654;DHT22;24320;56.980;24.336;2023-04-01T05:35:20;3.00;99.90
28654;DHT22;24320;56.980;24.336;2023-04-01T05:37:47;2.90;99.90
28654;DHT22;24320;56.980;24.336;2023-04-01T05:40:14;2.90;99.90
28654;DHT22;24320;56.980;24.336;2023-04-01T05:42:46;2.90;99.90
28654;DHT22;24320;56.980;24.336;2023-04-01T05:45:26;2.90;99.90
28654;DHT22;24320;56.980;24.336;2023-04-01T05:50:41;3.00;99.90
28654;DHT22;24320;56.980;24.336;2023-04-01T05:53:08;3.00;99.90
28654;DHT22;24320;56.980;24.336;2023-04-01T05:55:36;3.00;99.90
28654;DHT22;24320;56.980;24.336;2023-04-01T05:58:04;3.10;99.90
28654;DHT22;24320;56.980;24.336;2023-04-01T06:00:34;3.10;99.90
28654;DHT22;24320;56.980;24.336;2023-04-01T06:03:01;3.10;99.90
28654;DHT22;24320;56.980;24.336;2023-04-01T06:05:30;3.10;99.90
28654;DHT22;24320;56.980;24.336;2023-04-01T06:08:04;3.20;99.90
28654;DHT22;24320;56.980;24.336;2023-04-01T06:16:39;3.20;99.90
28654;DHT22;24320;56.980;24.336;2023-04-01T06:36:41;3.30;99.90
28654;DHT22;24320;56.980;24.336;2023-04-01T06:42:33;3.30;99.90
28654;DHT22;24320;56.980;24.336;2023-04-01T06:50:29;3.50;99.90
28654;DHT22;24320;56.980;24.336;2023-04-01T06:58:10;3.50;99.90
28654;DHT22;24320;56.980;24.336;2023-04-01T07:00:43;3.50;99.90
28654;DHT22;24320;56.980;24.336;2023-04-01T07:05:42;3.30;99.90
28654;DHT22;24320;56.980;24.336;2023-04-01T07:08:13;3.30;99.90
28654;DHT22;24320;56.980;24.336;2023-04-01T07:10:55;3.30;99.90
28654;DHT22;24320;56.980;24.336;2023-04-01T07:14:00;3.30;99.90
28654;DHT22;24320;56.980;24.336;2023-04-01T07:16:34;3.40;99.90
28654;DHT22;24320;56.980;24.336;2023-04-01T07:19:22;3.40;99.90
28654;DHT22;24320;56.980;24.336;2023-04-01T07:21:54;3.40;99.90
28654;DHT22;24320;56.980;24.336;2023-04-01T07:24:32;3.30;99.90
28654;DHT22;24320;56.980;24.336;2023-04-01T07:26:59;3.40;99.90
28654;DHT22;24320;56.980;24.336;2023-04-01T07:29:26;3.40;99.90
28654;DHT22;24320;56.980;24.336;2023-04-01T07:37:28;3.40;99.90
28654;DHT22;24320;56.980;24.336;2023-04-01T07:49:03;3.50;99.90
28654;DHT22;24320;56.980;24.336;2023-04-01T08:05:49;3.80;99.90
28654;DHT22;24320;56.980;24.336;2023-04-01T08:21:52;3.80;99.90
28654;DHT22;24320;56.980;24.336;2023-04-01T08:24:35;3.90;99.90
28654;DHT22;24320;56.980;24.336;2023-04-01T08:27:31;4.00;99.90
28654;DHT22;24320;56.980;24.336;2023-04-01T08:32:58;3.90;99.90
28654;DHT22;24320;56.980;24.336;2023-04-01T08:35:31;3.90;99.90
28654;DHT22;24320;56.980;24.336;2023-04-01T08:38:12;3.90;99.90
28654;DHT22;24320;56.980;24.336;2023-04-01T08:43:46;3.80;99.90
28654;DHT22;24320;56.980;24.336;2023-04-01T09:01:26;3.90;99.90
28654;DHT22;24320;56.980;24.336;2023-04-01T09:04:14;3.90;99.90
28654;DHT22;24320;56.980;24.336;2023-04-01T09:06:52;4.10;99.90
28654;DHT22;24320;56.980;24.336;2023-04-01T09:15:42;4.30;99.90
28654;DHT22;24320;56.980;24.336;2023-04-01T09:18:15;4.40;99.90
28654;DHT22;24320;56.980;24.336;2023-04-01T09:27:05;4.60;99.90
28654;DHT22;24320;56.980;24.336;2023-04-01T09:44:34;4.20;99.90
28654;DHT22;24320;56.980;24.336;2023-04-01T10:01:28;4.40;99.90
28654;DHT22;24320;56.980;24.336;2023-04-01T10:15:26;4.30;99.90
28654;DHT22;24320;56.980;24.336;2023-04-01T10:37:57;3.90;99.90
28654;DHT22;24320;56.980;24.336;2023-04-01T10:47:10;3.70;99.90
28654;DHT22;24320;56.980;24.336;2023-04-01T10:54:49;3.70;99.90
28654;DHT22;24320;56.980;24.336;2023-04-01T11:00:10;3.70;99.90
28654;DHT22;24320;56.980;24.336;2023-04-01T11:11:55;3.60;99.90
28654;DHT22;24320;56.980;24.336;2023-04-01T11:26:09;3.80;99.90
28654;DHT22;24320;56.980;24.336;2023-04-01T11:29:25;3.90;99.90
28654;DHT22;24320;56.980;24.336;2023-04-01T11:43:32;4.10;99.90
28654;DHT22;24320;56.980;24.336;2023-04-01T11:46:15;4.30;99.90
28654;DHT22;24320;56.980;24.336;2023-04-01T11:54:28;4.30;99.90
28654;DHT22;24320;56.980;24.336;2023-04-01T11:57:36;4.30;99.90
28654;DHT22;24320;56.980;24.336;2023-04-01T12:05:54;4.30;99.90
28654;DHT22;24320;56.980;24.336;2023-04-01T12:16:35;4.30;99.90
28654;DHT22;24320;56.980;24.336;2023-04-01T12:27:43;4.40;99.90
28654;DHT22;24320;56.980;24.336;2023-04-01T12:30:53;4.40;99.90
28654;DHT22;24320;56.980;24.336;2023-04-01T12:33:54;4.50;99.90
28654;DHT22;24320;56.980;24.336;2023-04-01T12:48:31;4.60;99.90
28654;DHT22;24320;56.980;24.336;2023-04-01T13:03:27;4.50;99.90
28654;DHT22;24320;56.980;24.336;2023-04-01T13:09:24;4.60;99.90
28654;DHT22;24320;56.980;24.336;2023-04-01T13:12:15;4.60;99.90
28654;DHT22;24320;56.980;24.336;2023-04-01T13:23:30;4.40;99.90
28654;DHT22;24320;56.980;24.336;2023-04-01T13:29:32;4.30;99.90
28654;DHT22;24320;56.980;24.336;2023-04-01T13:31:38;4.30;99.90
28654;DHT22;24320;56.980;24.336;2023-04-01T13:40:26;4.50;99.90
28654;DHT22;24320;56.980;24.336;2023-04-01T13:45:40;4.50;99.90
28654;DHT22;24320;56.980;24.336;2023-04-01T13:48:25;4.40;99.90
28654;DHT22;24320;56.980;24.336;2023-04-01T14:08:20;4.70;99.90
28654;DHT22;24320;56.980;24.336;2023-04-01T14:11:15;4.80;99.90
28654;DHT22;24320;56.980;24.336;2023-04-01T14:20:07;4.90;99.90
28654;DHT22;24320;56.980;24.336;2023-04-01T14:22:48;4.80;99.90
28654;DHT22;24320;56.980;24.336;2023-04-01T14:25:29;4.80;99.90
28654;DHT22;24320;56.980;24.336;2023-04-01T14:42:32;4.50;99.90
28654;DHT22;24320;56.980;24.336;2023-04-01T14:50:24;4.50;99.90
28654;DHT22;24320;56.980;24.336;2023-04-01T14:53:13;4.50;99.90
28654;DHT22;24320;56.980;24.336;2023-04-01T14:58:15;4.50;99.90
28654;DHT22;24320;56.980;24.336;2023-04-01T15:17:23;4.40;99.90
28654;DHT22;24320;56.980;24.336;2023-04-01T15:25:51;4.20;99.90
28654;DHT22;24320;56.980;24.336;2023-04-01T15:28:56;4.10;99.90
28654;DHT22;24320;56.980;24.336;2023-04-01T15:31:34;4.10;99.90
28654;DHT22;24320;56.980;24.336;2023-04-01T15:37:31;4.10;99.90
28654;DHT22;24320;56.980;24.336;2023-04-01T16:04:58;3.90;99.90
28654;DHT22;24320;56.980;24.336;2023-04-01T16:08:01;3.90;99.90
28654;DHT22;24320;56.980;24.336;2023-04-01T16:21:55;3.70;99.90
28654;DHT22;24320;56.980;24.336;2023-04-01T16:30:47;3.60;99.90
28654;DHT22;24320;56.980;24.336;2023-04-01T16:35:59;3.60;99.90
28654;DHT22;24320;56.980;24.336;2023-04-01T16:38:48;3.50;99.90
28654;DHT22;24320;56.980;24.336;2023-04-01T16:41:24;3.50;99.90
28654;DHT22;24320;56.980;24.336;2023-04-01T16:46:43;3.40;99.90
28654;DHT22;24320;56.980;24.336;2023-04-01T16:49:30;3.40;99.90
28654;DHT22;24320;56.980;24.336;2023-04-01T16:54:58;3.30;99.90
28654;DHT22;24320;56.980;24.336;2023-04-01T16:57:56;3.30;99.90
28654;DHT22;24320;56.980;24.336;2023-04-01T17:00:37;3.30;99.90
28654;DHT22;24320;56.980;24.336;2023-04-01T17:03:11;3.20;99.90
28654;DHT22;24320;56.980;24.336;2023-04-01T17:11:17;3.20;99.90
28654;DHT22;24320;56.980;24.336;2023-04-01T17:22:07;3.10;99.90
28654;DHT22;24320;56.980;24.336;2023-04-01T17:49:42;3.00;99.90
28654;DHT22;24320;56.980;24.336;2023-04-01T17:58:00;2.90;99.90
28654;DHT22;24320;56.980;24.336;2023-04-01T18:06:36;2.80;99.90
28654;DHT22;24320;56.980;24.336;2023-04-01T18:09:38;2.90;99.90
28654;DHT22;24320;56.980;24.336;2023-04-01T18:20:52;2.70;99.90
28654;DHT22;24320;56.980;24.336;2023-04-01T18:23:32;2.60;99.90
28654;DHT22;24320;56.980;24.336;2023-04-01T18:26:20;2.60;99.90
28654;DHT22;24320;56.980;24.336;2023-04-01T18:29:46;2.60;99.90
28654;DHT22;24320;56.980;24.336;2023-04-01T18:31:49;2.60;99.90
28654;DHT22;24320;56.980;24.336;2023-04-01T18:34:40;2.60;99.90
28654;DHT22;24320;56.980;24.336;2023-04-01T18:40:20;2.60;99.90
28654;DHT22;24320;56.980;24.336;2023-04-01T18:43:09;2.60;99.90
28654;DHT22;24320;56.980;24.336;2023-04-01T18:46:03;2.50;99.90
28654;DHT22;24320;56.980;24.336;2023-04-01T18:49:25;2.50;99.90
28654;DHT22;24320;56.980;24.336;2023-04-01T18:52:02;2.50;99.90
28654;DHT22;24320;56.980;24.336;2023-04-01T19:55:20;2.40;99.90
28654;DHT22;24320;56.980;24.336;2023-04-01T19:57:58;2.40;99.90
28654;DHT22;24320;56.980;24.336;2023-04-01T20:00:37;2.40;99.90
28654;DHT22;24320;56.980;24.336;2023-04-01T20:12:03;2.40;99.90
28654;DHT22;24320;56.980;24.336;2023-04-01T20:14:45;2.40;99.90
28654;DHT22;24320;56.980;24.336;2023-04-01T20:20:03;2.40;99.90
28654;DHT22;24320;56.980;24.336;2023-04-01T20:27:51;2.30;99.90
28654;DHT22;24320;56.980;24.336;2023-04-01T20:30:47;2.30;99.90
28654;DHT22;24320;56.980;24.336;2023-04-01T20:33:37;2.30;99.90
28654;DHT22;24320;56.980;24.336;2023-04-01T20:36:30;2.40;99.90
28654;DHT22;24320;56.980;24.336;2023-04-01T20:39:15;2.40;99.90
28654;DHT22;24320;56.980;24.336;2023-04-01T20:47:57;2.40;99.90
28654;DHT22;24320;56.980;24.336;2023-04-01T20:50:48;2.30;99.90
28654;DHT22;24320;56.980;24.336;2023-04-01T20:55:53;2.30;99.90
28654;DHT22;24320;56.980;24.336;2023-04-01T20:58:53;2.30;99.90
28654;DHT22;24320;56.980;24.336;2023-04-01T21:04:37;2.30;99.90
28654;DHT22;24320;56.980;24.336;2023-04-01T21:18:18;2.30;99.90
28654;DHT22;24320;56.980;24.336;2023-04-01T21:21:25;2.30;99.90
28654;DHT22;24320;56.980;24.336;2023-04-01T21:35:55;2.30;99.90
28654;DHT22;24320;56.980;24.336;2023-04-01T21:38:44;2.20;99.90
28654;DHT22;24320;56.980;24.336;2023-04-01T22:06:37;2.20;99.90
28654;DHT22;24320;56.980;24.336;2023-04-01T22:09:23;2.20;99.90
28654;DHT22;24320;56.980;24.336;2023-04-01T22:14:33;2.10;99.90
28654;DHT22;24320;56.980;24.336;2023-04-01T22:25:37;2.10;99.90
28654;DHT22;24320;56.980;24.336;2023-04-01T22:28:10;2.10;99.90
28654;DHT22;24320;56.980;24.336;2023-04-01T22:30:42;2.10;99.90
28654;DHT22;24320;56.980;24.336;2023-04-01T22:45:37;2.20;99.90
28654;DHT22;24320;56.980;24.336;2023-04-01T22:53:42;2.20;99.90
28654;DHT22;24320;56.980;24.336;2023-04-01T22:56:20;2.20;99.90
28654;DHT22;24320;56.980;24.336;2023-04-01T23:01:41;2.20;99.90
28654;DHT22;24320;56.980;24.336;2023-04-01T23:04:16;2.20;99.90
28654;DHT22;24320;56.980;24.336;2023-04-01T23:06:52;2.20;99.90
28654;DHT22;24320;56.980;24.336;2023-04-01T23:09:27;2.30;99.90
28654;DHT22;24320;56.980;24.336;2023-04-01T23:11:59;2.20;99.90
28654;DHT22;24320;56.980;24.336;2023-04-01T23:14:44;2.20;99.90
28654;DHT22;24320;56.980;24.336;2023-04-01T23:17:29;2.20;99.90
28654;DHT22;24320;56.980;24.336;2023-04-01T23:20:32;2.20;99.90
28654;DHT22;24320;56.980;24.336;2023-04-01T23:28:57;2.20;99.90
28654;DHT22;24320;56.980;24.336;2023-04-01T23:31:40;2.10;99.90
28654;DHT22;24320;56.980;24.336;2023-04-01T23:36:50;2.10;99.90
28654;DHT22;24320;56.980;24.336;2023-04-01T23:39:22;2.10;99.90
28654;DHT22;24320;56.980;24.336;2023-04-01T23:41:53;2.10;99.90
28654;DHT22;24320;56.980;24.336;2023-04-01T23:44:20;2.10;99.90
28654;DHT22;24320;56.980;24.336;2023-04-01T23:46:48;2.10;99.90
28654;DHT22;24320;56.980;24.336;2023-04-01T23:49:22;2.00;99.90
28654;DHT22;24320;56.980;24.336;2023-04-01T23:52:03;2.10;99.90
28654;DHT22;24320;56.980;24.336;2023-04-01T23:54:41;2.10;99.90
28654;DHT22;24320;56.980;24.336;2023-04-01T23:57:19;2.10;99.90
